sensor_id;sensor_type;location;lat;lon;timestamp;P1;durP1;ratioP1;P2;durP2;ratioP2
13611;SDS011;6877;51.436;6.774;2022-12-20T00:02:05;4.68;;;2.97;;
13611;SDS011;6877;51.436;6.774;2022-12-20T00:04:31;3.72;;;2.80;;
13611;SDS011;6877;51.436;6.774;2022-12-20T00:07:03;7.03;;;3.63;;
13611;SDS011;6877;51.436;6.774;2022-12-20T00:09:34;7.38;;;2.97;;
13611;SDS011;6877;51.436;6.774;2022-12-20T00:12:01;8.48;;;3.95;;
13611;SDS011;6877;51.436;6.774;2022-12-20T00:14:27;7.43;;;3.13;;
13611;SDS011;6877;51.436;6.774;2022-12-20T00:16:58;3.85;;;2.85;;
13611;SDS011;6877;51.436;6.774;2022-12-20T00:19:30;6.35;;;3.38;;
13611;SDS011;6877;51.436;6.774;2022-12-20T00:21:56;3.72;;;2.78;;
13611;SDS011;6877;51.436;6.774;2022-12-20T00:24:23;4.32;;;3.78;;
13611;SDS011;6877;51.436;6.774;2022-12-20T00:26:50;5.20;;;3.35;;
13611;SDS011;6877;51.436;6.774;2022-12-20T00:29:16;6.03;;;3.50;;
13611;SDS011;6877;51.436;6.774;2022-12-20T00:31:43;3.78;;;2.80;;
13611;SDS011;6877;51.436;6.774;2022-12-20T00:34:09;5.10;;;3.13;;
13611;SDS011;6877;51.436;6.774;2022-12-20T00:36:36;4.70;;;2.90;;
13611;SDS011;6877;51.436;6.774;2022-12-20T00:39:04;4.85;;;3.20;;
13611;SDS011;6877;51.436;6.774;2022-12-20T00:41:36;4.45;;;2.83;;
13611;SDS011;6877;51.436;6.774;2022-12-20T00:44:03;10.57;;;3.13;;
13611;SDS011;6877;51.436;6.774;2022-12-20T00:46:34;2.78;;;2.53;;
13611;SDS011;6877;51.436;6.774;2022-12-20T00:49:01;5.40;;;3.15;;
13611;SDS011;6877;51.436;6.774;2022-12-20T00:51:32;3.88;;;2.88;;
13611;SDS011;6877;51.436;6.774;2022-12-20T00:53:58;4.88;;;3.45;;
13611;SDS011;6877;51.436;6.774;2022-12-20T00:56:25;3.50;;;2.70;;
13611;SDS011;6877;51.436;6.774;2022-12-20T00:58:51;6.30;;;3.22;;
13611;SDS011;6877;51.436;6.774;2022-12-20T01:01:25;4.35;;;3.10;;
13611;SDS011;6877;51.436;6.774;2022-12-20T01:03:53;6.35;;;2.92;;
13611;SDS011;6877;51.436;6.774;2022-12-20T01:06:25;7.45;;;2.80;;
13611;SDS011;6877;51.436;6.774;2022-12-20T01:08:57;5.53;;;2.80;;
13611;SDS011;6877;51.436;6.774;2022-12-20T01:11:25;4.72;;;3.17;;
13611;SDS011;6877;51.436;6.774;2022-12-20T01:13:59;6.18;;;2.83;;
13611;SDS011;6877;51.436;6.774;2022-12-20T01:16:30;3.92;;;2.22;;
13611;SDS011;6877;51.436;6.774;2022-12-20T01:19:06;3.75;;;2.67;;
13611;SDS011;6877;51.436;6.774;2022-12-20T01:21:35;4.72;;;3.03;;
13611;SDS011;6877;51.436;6.774;2022-12-20T01:24:03;3.72;;;2.85;;
13611;SDS011;6877;51.436;6.774;2022-12-20T01:26:29;4.97;;;3.22;;
13611;SDS011;6877;51.436;6.774;2022-12-20T01:28:57;3.22;;;2.47;;
13611;SDS011;6877;51.436;6.774;2022-12-20T01:31:25;2.63;;;2.33;;
13611;SDS011;6877;51.436;6.774;2022-12-20T01:33:52;9.20;;;2.70;;
13611;SDS011;6877;51.436;6.774;2022-12-20T01:36:21;4.07;;;2.58;;
13611;SDS011;6877;51.436;6.774;2022-12-20T01:38:57;8.20;;;2.67;;
13611;SDS011;6877;51.436;6.774;2022-12-20T01:41:25;3.13;;;2.65;;
13611;SDS011;6877;51.436;6.774;2022-12-20T01:44:00;3.97;;;2.63;;
13611;SDS011;6877;51.436;6.774;2022-12-20T01:46:32;3.70;;;2.60;;
13611;SDS011;6877;51.436;6.774;2022-12-20T01:49:06;2.58;;;2.05;;
13611;SDS011;6877;51.436;6.774;2022-12-20T01:51:46;6.32;;;2.50;;
13611;SDS011;6877;51.436;6.774;2022-12-20T01:54:31;5.45;;;3.10;;
13611;SDS011;6877;51.436;6.774;2022-12-20T01:57:05;4.10;;;2.65;;
13611;SDS011;6877;51.436;6.774;2022-12-20T01:59:36;5.13;;;2.95;;
13611;SDS011;6877;51.436;6.774;2022-12-20T02:02:11;5.97;;;3.28;;
13611;SDS011;6877;51.436;6.774;2022-12-20T02:04:43;5.18;;;2.92;;
13611;SDS011;6877;51.436;6.774;2022-12-20T02:07:11;5.97;;;2.67;;
13611;SDS011;6877;51.436;6.774;2022-12-20T02:09:41;4.57;;;2.88;;
13611;SDS011;6877;51.436;6.774;2022-12-20T02:12:08;5.35;;;2.92;;
13611;SDS011;6877;51.436;6.774;2022-12-20T02:23:24;3.35;;;2.55;;
13611;SDS011;6877;51.436;6.774;2022-12-20T02:29:32;5.13;;;2.83;;
13611;SDS011;6877;51.436;6.774;2022-12-20T02:32:17;6.00;;;3.55;;
13611;SDS011;6877;51.436;6.774;2022-12-20T02:34:53;3.83;;;2.83;;
13611;SDS011;6877;51.436;6.774;2022-12-20T02:37:20;9.65;;;3.13;;
13611;SDS011;6877;51.436;6.774;2022-12-20T02:39:51;3.95;;;3.08;;
13611;SDS011;6877;51.436;6.774;2022-12-20T02:42:23;6.43;;;3.75;;
13611;SDS011;6877;51.436;6.774;2022-12-20T02:44:55;6.45;;;3.05;;
13611;SDS011;6877;51.436;6.774;2022-12-20T02:47:50;6.40;;;3.67;;
13611;SDS011;6877;51.436;6.774;2022-12-20T02:50:30;3.47;;;2.60;;
13611;SDS011;6877;51.436;6.774;2022-12-20T02:53:09;4.43;;;3.45;;
13611;SDS011;6877;51.436;6.774;2022-12-20T02:55:45;5.07;;;3.17;;
13611;SDS011;6877;51.436;6.774;2022-12-20T02:58:32;8.00;;;3.45;;
13611;SDS011;6877;51.436;6.774;2022-12-20T03:01:10;5.38;;;3.78;;
13611;SDS011;6877;51.436;6.774;2022-12-20T03:03:42;11.00;;;5.45;;
13611;SDS011;6877;51.436;6.774;2022-12-20T03:06:14;10.32;;;3.42;;
13611;SDS011;6877;51.436;6.774;2022-12-20T03:08:45;7.88;;;4.05;;
13611;SDS011;6877;51.436;6.774;2022-12-20T03:11:17;8.30;;;3.85;;
13611;SDS011;6877;51.436;6.774;2022-12-20T03:13:45;4.68;;;3.95;;
13611;SDS011;6877;51.436;6.774;2022-12-20T03:16:16;9.90;;;5.00;;
13611;SDS011;6877;51.436;6.774;2022-12-20T03:18:48;9.75;;;4.65;;
13611;SDS011;6877;51.436;6.774;2022-12-20T03:21:19;8.90;;;4.20;;
13611;SDS011;6877;51.436;6.774;2022-12-20T03:23:50;7.68;;;4.38;;
13611;SDS011;6877;51.436;6.774;2022-12-20T03:26:17;9.95;;;4.97;;
13611;SDS011;6877;51.436;6.774;2022-12-20T03:28:48;7.45;;;4.97;;
13611;SDS011;6877;51.436;6.774;2022-12-20T03:31:19;6.32;;;4.90;;
13611;SDS011;6877;51.436;6.774;2022-12-20T03:33:46;14.93;;;5.72;;
13611;SDS011;6877;51.436;6.774;2022-12-20T03:36:13;11.73;;;5.40;;
13611;SDS011;6877;51.436;6.774;2022-12-20T03:38:39;6.80;;;4.95;;
13611;SDS011;6877;51.436;6.774;2022-12-20T03:41:05;6.28;;;4.60;;
13611;SDS011;6877;51.436;6.774;2022-12-20T03:43:37;6.35;;;4.28;;
13611;SDS011;6877;51.436;6.774;2022-12-20T03:46:03;8.73;;;5.07;;
13611;SDS011;6877;51.436;6.774;2022-12-20T03:48:30;6.25;;;5.05;;
13611;SDS011;6877;51.436;6.774;2022-12-20T03:51:01;8.55;;;5.00;;
13611;SDS011;6877;51.436;6.774;2022-12-20T03:53:32;13.65;;;5.40;;
13611;SDS011;6877;51.436;6.774;2022-12-20T03:55:59;7.10;;;5.43;;
13611;SDS011;6877;51.436;6.774;2022-12-20T03:58:25;8.82;;;5.30;;
13611;SDS011;6877;51.436;6.774;2022-12-20T04:00:52;11.23;;;5.38;;
13611;SDS011;6877;51.436;6.774;2022-12-20T04:03:18;9.88;;;6.60;;
13611;SDS011;6877;51.436;6.774;2022-12-20T04:05:45;6.25;;;4.40;;
13611;SDS011;6877;51.436;6.774;2022-12-20T04:08:11;8.27;;;5.25;;
13611;SDS011;6877;51.436;6.774;2022-12-20T04:10:43;8.60;;;5.50;;
13611;SDS011;6877;51.436;6.774;2022-12-20T04:13:34;7.68;;;5.70;;
13611;SDS011;6877;51.436;6.774;2022-12-20T04:16:06;10.07;;;5.20;;
13611;SDS011;6877;51.436;6.774;2022-12-20T04:18:37;10.57;;;5.72;;
13611;SDS011;6877;51.436;6.774;2022-12-20T04:21:03;11.80;;;6.43;;
13611;SDS011;6877;51.436;6.774;2022-12-20T04:23:37;8.90;;;6.40;;
13611;SDS011;6877;51.436;6.774;2022-12-20T04:26:05;12.32;;;6.75;;
13611;SDS011;6877;51.436;6.774;2022-12-20T04:28:33;9.88;;;6.13;;
13611;SDS011;6877;51.436;6.774;2022-12-20T04:31:00;9.70;;;6.10;;
13611;SDS011;6877;51.436;6.774;2022-12-20T04:33:32;13.43;;;6.40;;
13611;SDS011;6877;51.436;6.774;2022-12-20T04:35:59;13.82;;;8.18;;
13611;SDS011;6877;51.436;6.774;2022-12-20T04:38:30;15.38;;;8.10;;
13611;SDS011;6877;51.436;6.774;2022-12-20T04:40:57;12.38;;;7.43;;
13611;SDS011;6877;51.436;6.774;2022-12-20T04:43:23;12.50;;;7.55;;
13611;SDS011;6877;51.436;6.774;2022-12-20T04:45:55;12.23;;;7.38;;
13611;SDS011;6877;51.436;6.774;2022-12-20T04:48:26;19.20;;;8.25;;
13611;SDS011;6877;51.436;6.774;2022-12-20T04:50:54;19.92;;;8.10;;
13611;SDS011;6877;51.436;6.774;2022-12-20T04:53:22;12.63;;;6.93;;
13611;SDS011;6877;51.436;6.774;2022-12-20T04:56:07;11.88;;;7.13;;
13611;SDS011;6877;51.436;6.774;2022-12-20T04:58:34;10.52;;;7.40;;
13611;SDS011;6877;51.436;6.774;2022-12-20T05:01:00;11.65;;;6.50;;
13611;SDS011;6877;51.436;6.774;2022-12-20T05:03:27;10.07;;;7.50;;
13611;SDS011;6877;51.436;6.774;2022-12-20T05:05:53;12.45;;;6.68;;
13611;SDS011;6877;51.436;6.774;2022-12-20T05:08:24;11.27;;;6.55;;
13611;SDS011;6877;51.436;6.774;2022-12-20T05:10:51;10.60;;;6.75;;
13611;SDS011;6877;51.436;6.774;2022-12-20T05:13:22;10.30;;;6.70;;
13611;SDS011;6877;51.436;6.774;2022-12-20T05:15:49;29.25;;;6.85;;
13611;SDS011;6877;51.436;6.774;2022-12-20T05:18:23;9.60;;;7.25;;
13611;SDS011;6877;51.436;6.774;2022-12-20T05:20:53;13.82;;;7.07;;
13611;SDS011;6877;51.436;6.774;2022-12-20T05:23:40;13.77;;;5.88;;
13611;SDS011;6877;51.436;6.774;2022-12-20T05:26:32;8.73;;;5.30;;
13611;SDS011;6877;51.436;6.774;2022-12-20T05:29:01;8.20;;;5.80;;
13611;SDS011;6877;51.436;6.774;2022-12-20T05:31:33;13.50;;;7.00;;
13611;SDS011;6877;51.436;6.774;2022-12-20T05:33:59;11.70;;;5.65;;
13611;SDS011;6877;51.436;6.774;2022-12-20T05:36:26;7.68;;;5.07;;
13611;SDS011;6877;51.436;6.774;2022-12-20T05:38:53;9.93;;;6.13;;
13611;SDS011;6877;51.436;6.774;2022-12-20T05:41:19;9.98;;;5.90;;
13611;SDS011;6877;51.436;6.774;2022-12-20T05:43:51;8.82;;;5.88;;
13611;SDS011;6877;51.436;6.774;2022-12-20T05:46:17;12.13;;;6.93;;
13611;SDS011;6877;51.436;6.774;2022-12-20T05:48:43;12.07;;;7.55;;
13611;SDS011;6877;51.436;6.774;2022-12-20T05:51:10;9.30;;;5.38;;
13611;SDS011;6877;51.436;6.774;2022-12-20T05:53:36;11.80;;;5.90;;
13611;SDS011;6877;51.436;6.774;2022-12-20T05:56:03;11.85;;;5.72;;
13611;SDS011;6877;51.436;6.774;2022-12-20T05:58:34;11.25;;;5.35;;
13611;SDS011;6877;51.436;6.774;2022-12-20T06:01:01;12.93;;;6.63;;
13611;SDS011;6877;51.436;6.774;2022-12-20T06:03:29;11.85;;;6.20;;
13611;SDS011;6877;51.436;6.774;2022-12-20T06:05:56;11.95;;;6.47;;
13611;SDS011;6877;51.436;6.774;2022-12-20T06:08:23;11.98;;;5.95;;
13611;SDS011;6877;51.436;6.774;2022-12-20T06:10:50;7.50;;;5.65;;
13611;SDS011;6877;51.436;6.774;2022-12-20T06:13:16;7.60;;;5.30;;
13611;SDS011;6877;51.436;6.774;2022-12-20T06:15:43;10.50;;;5.97;;
13611;SDS011;6877;51.436;6.774;2022-12-20T06:18:10;9.27;;;5.80;;
13611;SDS011;6877;51.436;6.774;2022-12-20T06:20:36;11.38;;;5.63;;
13611;SDS011;6877;51.436;6.774;2022-12-20T06:23:03;7.78;;;6.20;;
13611;SDS011;6877;51.436;6.774;2022-12-20T06:25:34;8.98;;;5.80;;
13611;SDS011;6877;51.436;6.774;2022-12-20T06:28:01;8.25;;;5.18;;
13611;SDS011;6877;51.436;6.774;2022-12-20T06:30:33;6.65;;;4.93;;
13611;SDS011;6877;51.436;6.774;2022-12-20T06:33:05;12.15;;;5.35;;
13611;SDS011;6877;51.436;6.774;2022-12-20T06:35:31;7.90;;;5.57;;
13611;SDS011;6877;51.436;6.774;2022-12-20T06:38:03;6.82;;;5.03;;
13611;SDS011;6877;51.436;6.774;2022-12-20T06:40:34;7.72;;;5.40;;
13611;SDS011;6877;51.436;6.774;2022-12-20T06:43:01;13.25;;;5.47;;
13611;SDS011;6877;51.436;6.774;2022-12-20T06:45:27;6.70;;;5.00;;
13611;SDS011;6877;51.436;6.774;2022-12-20T06:47:53;5.57;;;4.32;;
13611;SDS011;6877;51.436;6.774;2022-12-20T06:50:27;7.07;;;4.65;;
13611;SDS011;6877;51.436;6.774;2022-12-20T06:52:58;8.63;;;4.55;;
13611;SDS011;6877;51.436;6.774;2022-12-20T06:55:25;12.20;;;5.28;;
13611;SDS011;6877;51.436;6.774;2022-12-20T06:57:51;7.97;;;4.38;;
13611;SDS011;6877;51.436;6.774;2022-12-20T07:00:18;6.57;;;4.55;;
13611;SDS011;6877;51.436;6.774;2022-12-20T07:02:45;6.13;;;4.70;;
13611;SDS011;6877;51.436;6.774;2022-12-20T07:05:11;4.70;;;3.78;;
13611;SDS011;6877;51.436;6.774;2022-12-20T07:07:39;8.82;;;4.32;;
13611;SDS011;6877;51.436;6.774;2022-12-20T07:10:06;6.68;;;4.78;;
13611;SDS011;6877;51.436;6.774;2022-12-20T07:12:33;9.02;;;4.38;;
13611;SDS011;6877;51.436;6.774;2022-12-20T07:15:00;5.75;;;3.83;;
13611;SDS011;6877;51.436;6.774;2022-12-20T07:17:31;6.25;;;3.45;;
13611;SDS011;6877;51.436;6.774;2022-12-20T07:19:57;9.18;;;4.88;;
13611;SDS011;6877;51.436;6.774;2022-12-20T07:22:24;9.13;;;4.60;;
13611;SDS011;6877;51.436;6.774;2022-12-20T07:24:51;6.05;;;4.25;;
13611;SDS011;6877;51.436;6.774;2022-12-20T07:27:17;6.15;;;3.65;;
13611;SDS011;6877;51.436;6.774;2022-12-20T07:29:44;6.43;;;3.72;;
13611;SDS011;6877;51.436;6.774;2022-12-20T07:32:11;7.78;;;4.03;;
13611;SDS011;6877;51.436;6.774;2022-12-20T07:34:39;5.00;;;4.10;;
13611;SDS011;6877;51.436;6.774;2022-12-20T07:37:05;5.57;;;4.18;;
13611;SDS011;6877;51.436;6.774;2022-12-20T07:39:38;6.35;;;3.63;;
13611;SDS011;6877;51.436;6.774;2022-12-20T07:42:05;6.35;;;4.25;;
13611;SDS011;6877;51.436;6.774;2022-12-20T07:44:31;8.38;;;4.55;;
13611;SDS011;6877;51.436;6.774;2022-12-20T07:46:57;4.75;;;3.95;;
13611;SDS011;6877;51.436;6.774;2022-12-20T07:49:24;6.78;;;3.92;;
13611;SDS011;6877;51.436;6.774;2022-12-20T07:51:51;10.20;;;4.95;;
13611;SDS011;6877;51.436;6.774;2022-12-20T07:54:27;5.43;;;3.72;;
13611;SDS011;6877;51.436;6.774;2022-12-20T07:56:57;6.13;;;4.00;;
13611;SDS011;6877;51.436;6.774;2022-12-20T07:59:27;5.72;;;4.63;;
13611;SDS011;6877;51.436;6.774;2022-12-20T08:02:03;6.53;;;3.58;;
13611;SDS011;6877;51.436;6.774;2022-12-20T08:04:31;6.68;;;4.55;;
13611;SDS011;6877;51.436;6.774;2022-12-20T08:06:59;7.15;;;4.00;;
13611;SDS011;6877;51.436;6.774;2022-12-20T08:09:30;6.97;;;3.47;;
13611;SDS011;6877;51.436;6.774;2022-12-20T08:12:06;7.43;;;4.03;;
13611;SDS011;6877;51.436;6.774;2022-12-20T08:14:40;9.15;;;4.18;;
13611;SDS011;6877;51.436;6.774;2022-12-20T08:17:12;5.88;;;4.13;;
13611;SDS011;6877;51.436;6.774;2022-12-20T08:19:39;7.03;;;4.03;;
13611;SDS011;6877;51.436;6.774;2022-12-20T08:22:10;4.80;;;3.33;;
13611;SDS011;6877;51.436;6.774;2022-12-20T08:24:41;7.05;;;3.88;;
13611;SDS011;6877;51.436;6.774;2022-12-20T08:27:08;11.35;;;4.20;;
13611;SDS011;6877;51.436;6.774;2022-12-20T08:29:34;9.43;;;3.47;;
13611;SDS011;6877;51.436;6.774;2022-12-20T08:32:01;8.27;;;3.50;;
13611;SDS011;6877;51.436;6.774;2022-12-20T08:34:27;5.70;;;3.45;;
13611;SDS011;6877;51.436;6.774;2022-12-20T08:36:54;10.65;;;3.55;;
13611;SDS011;6877;51.436;6.774;2022-12-20T08:39:20;4.30;;;3.22;;
13611;SDS011;6877;51.436;6.774;2022-12-20T08:41:51;7.60;;;3.17;;
13611;SDS011;6877;51.436;6.774;2022-12-20T08:44:23;4.72;;;3.45;;
13611;SDS011;6877;51.436;6.774;2022-12-20T08:46:50;4.78;;;3.97;;
13611;SDS011;6877;51.436;6.774;2022-12-20T08:49:19;8.43;;;3.80;;
13611;SDS011;6877;51.436;6.774;2022-12-20T08:51:45;6.90;;;3.35;;
13611;SDS011;6877;51.436;6.774;2022-12-20T08:54:11;4.45;;;3.30;;
13611;SDS011;6877;51.436;6.774;2022-12-20T08:56:38;4.47;;;3.40;;
13611;SDS011;6877;51.436;6.774;2022-12-20T08:59:04;6.22;;;4.15;;
13611;SDS011;6877;51.436;6.774;2022-12-20T09:01:31;4.70;;;3.75;;
13611;SDS011;6877;51.436;6.774;2022-12-20T09:03:58;3.90;;;3.45;;
13611;SDS011;6877;51.436;6.774;2022-12-20T09:06:25;4.72;;;3.90;;
13611;SDS011;6877;51.436;6.774;2022-12-20T09:08:57;7.60;;;3.75;;
13611;SDS011;6877;51.436;6.774;2022-12-20T09:11:25;9.63;;;3.80;;
13611;SDS011;6877;51.436;6.774;2022-12-20T09:13:57;5.40;;;4.15;;
13611;SDS011;6877;51.436;6.774;2022-12-20T09:16:26;5.88;;;3.88;;
13611;SDS011;6877;51.436;6.774;2022-12-20T09:18:55;13.20;;;3.53;;
13611;SDS011;6877;51.436;6.774;2022-12-20T09:21:23;9.48;;;4.88;;
13611;SDS011;6877;51.436;6.774;2022-12-20T09:23:50;4.60;;;3.30;;
13611;SDS011;6877;51.436;6.774;2022-12-20T09:26:18;3.58;;;3.28;;
13611;SDS011;6877;51.436;6.774;2022-12-20T09:28:46;8.77;;;3.80;;
13611;SDS011;6877;51.436;6.774;2022-12-20T09:31:13;8.02;;;4.13;;
13611;SDS011;6877;51.436;6.774;2022-12-20T09:33:42;7.13;;;4.35;;
13611;SDS011;6877;51.436;6.774;2022-12-20T09:36:13;6.60;;;3.85;;
13611;SDS011;6877;51.436;6.774;2022-12-20T09:38:47;5.93;;;4.68;;
13611;SDS011;6877;51.436;6.774;2022-12-20T09:41:31;10.13;;;4.25;;
13611;SDS011;6877;51.436;6.774;2022-12-20T09:47:03;5.97;;;4.15;;
13611;SDS011;6877;51.436;6.774;2022-12-20T09:49:38;5.78;;;4.18;;
13611;SDS011;6877;51.436;6.774;2022-12-20T09:52:27;5.68;;;3.90;;
13611;SDS011;6877;51.436;6.774;2022-12-20T09:58:34;4.82;;;3.78;;
13611;SDS011;6877;51.436;6.774;2022-12-20T10:01:16;5.40;;;3.60;;
13611;SDS011;6877;51.436;6.774;2022-12-20T10:03:46;7.38;;;4.38;;
13611;SDS011;6877;51.436;6.774;2022-12-20T10:09:03;6.47;;;4.38;;
13611;SDS011;6877;51.436;6.774;2022-12-20T10:11:48;5.72;;;4.15;;
13611;SDS011;6877;51.436;6.774;2022-12-20T10:14:55;5.65;;;3.97;;
13611;SDS011;6877;51.436;6.774;2022-12-20T10:23:16;5.43;;;3.38;;
13611;SDS011;6877;51.436;6.774;2022-12-20T10:25:52;5.15;;;3.40;;
13611;SDS011;6877;51.436;6.774;2022-12-20T10:28:25;8.57;;;4.03;;
13611;SDS011;6877;51.436;6.774;2022-12-20T10:31:06;4.38;;;3.40;;
13611;SDS011;6877;51.436;6.774;2022-12-20T10:33:36;7.60;;;3.58;;
13611;SDS011;6877;51.436;6.774;2022-12-20T10:36:23;6.55;;;4.15;;
13611;SDS011;6877;51.436;6.774;2022-12-20T10:38:55;5.68;;;3.50;;
13611;SDS011;6877;51.436;6.774;2022-12-20T10:41:29;9.60;;;3.97;;
13611;SDS011;6877;51.436;6.774;2022-12-20T10:46:51;8.48;;;3.40;;
13611;SDS011;6877;51.436;6.774;2022-12-20T10:49:23;4.78;;;3.22;;
13611;SDS011;6877;51.436;6.774;2022-12-20T10:51:53;4.80;;;3.25;;
13611;SDS011;6877;51.436;6.774;2022-12-20T10:54:42;4.85;;;3.55;;
13611;SDS011;6877;51.436;6.774;2022-12-20T10:59:54;6.43;;;4.03;;
13611;SDS011;6877;51.436;6.774;2022-12-20T11:02:32;7.25;;;3.63;;
13611;SDS011;6877;51.436;6.774;2022-12-20T11:07:38;6.13;;;4.75;;
13611;SDS011;6877;51.436;6.774;2022-12-20T11:10:28;7.07;;;3.50;;
13611;SDS011;6877;51.436;6.774;2022-12-20T11:12:56;5.10;;;4.13;;
13611;SDS011;6877;51.436;6.774;2022-12-20T11:15:28;6.53;;;3.53;;
13611;SDS011;6877;51.436;6.774;2022-12-20T11:18:06;5.15;;;3.15;;
13611;SDS011;6877;51.436;6.774;2022-12-20T11:36:46;16.35;;;4.10;;
13611;SDS011;6877;51.436;6.774;2022-12-20T11:39:36;5.18;;;3.90;;
13611;SDS011;6877;51.436;6.774;2022-12-20T11:42:19;5.70;;;3.30;;
13611;SDS011;6877;51.436;6.774;2022-12-20T11:44:52;6.22;;;3.97;;
13611;SDS011;6877;51.436;6.774;2022-12-20T11:47:33;5.68;;;4.85;;
13611;SDS011;6877;51.436;6.774;2022-12-20T11:53:23;7.80;;;4.10;;
13611;SDS011;6877;51.436;6.774;2022-12-20T11:55:52;5.85;;;4.05;;
13611;SDS011;6877;51.436;6.774;2022-12-20T11:58:32;6.95;;;4.20;;
13611;SDS011;6877;51.436;6.774;2022-12-20T12:01:09;7.45;;;4.30;;
13611;SDS011;6877;51.436;6.774;2022-12-20T12:03:40;5.97;;;3.60;;
13611;SDS011;6877;51.436;6.774;2022-12-20T12:06:17;4.68;;;3.85;;
13611;SDS011;6877;51.436;6.774;2022-12-20T12:08:52;6.63;;;4.30;;
13611;SDS011;6877;51.436;6.774;2022-12-20T12:11:30;7.32;;;3.53;;
13611;SDS011;6877;51.436;6.774;2022-12-20T12:14:00;8.85;;;4.60;;
13611;SDS011;6877;51.436;6.774;2022-12-20T12:16:38;6.95;;;5.55;;
13611;SDS011;6877;51.436;6.774;2022-12-20T12:19:08;7.47;;;4.72;;
13611;SDS011;6877;51.436;6.774;2022-12-20T12:21:43;4.93;;;4.05;;
13611;SDS011;6877;51.436;6.774;2022-12-20T12:26:54;8.48;;;3.80;;
13611;SDS011;6877;51.436;6.774;2022-12-20T12:29:23;6.35;;;3.70;;
13611;SDS011;6877;51.436;6.774;2022-12-20T12:47:16;6.03;;;3.40;;
13611;SDS011;6877;51.436;6.774;2022-12-20T12:50:07;8.45;;;4.07;;
13611;SDS011;6877;51.436;6.774;2022-12-20T12:52:49;5.57;;;4.03;;
13611;SDS011;6877;51.436;6.774;2022-12-20T12:58:14;6.75;;;4.72;;
13611;SDS011;6877;51.436;6.774;2022-12-20T13:01:10;11.60;;;4.72;;
13611;SDS011;6877;51.436;6.774;2022-12-20T13:03:39;7.65;;;4.18;;
13611;SDS011;6877;51.436;6.774;2022-12-20T13:14:10;10.38;;;4.03;;
13611;SDS011;6877;51.436;6.774;2022-12-20T13:21:57;13.50;;;6.97;;
13611;SDS011;6877;51.436;6.774;2022-12-20T13:40:38;18.15;;;5.93;;
13611;SDS011;6877;51.436;6.774;2022-12-20T13:45:46;10.98;;;6.35;;
13611;SDS011;6877;51.436;6.774;2022-12-20T13:48:14;14.95;;;7.03;;
13611;SDS011;6877;51.436;6.774;2022-12-20T13:50:51;14.75;;;7.85;;
13611;SDS011;6877;51.436;6.774;2022-12-20T13:53:20;11.57;;;7.07;;
13611;SDS011;6877;51.436;6.774;2022-12-20T13:55:54;10.30;;;6.68;;
13611;SDS011;6877;51.436;6.774;2022-12-20T13:58:21;11.68;;;6.93;;
13611;SDS011;6877;51.436;6.774;2022-12-20T14:00:50;15.05;;;5.90;;
13611;SDS011;6877;51.436;6.774;2022-12-20T14:03:20;8.23;;;5.55;;
13611;SDS011;6877;51.436;6.774;2022-12-20T14:06:00;14.68;;;6.72;;
13611;SDS011;6877;51.436;6.774;2022-12-20T14:08:35;11.05;;;5.32;;
13611;SDS011;6877;51.436;6.774;2022-12-20T14:11:07;14.05;;;5.13;;
13611;SDS011;6877;51.436;6.774;2022-12-20T14:13:50;13.85;;;6.47;;
13611;SDS011;6877;51.436;6.774;2022-12-20T14:16:27;8.95;;;5.18;;
13611;SDS011;6877;51.436;6.774;2022-12-20T14:21:26;11.85;;;5.70;;
13611;SDS011;6877;51.436;6.774;2022-12-20T14:23:59;8.20;;;4.80;;
13611;SDS011;6877;51.436;6.774;2022-12-20T14:26:27;11.38;;;5.40;;
13611;SDS011;6877;51.436;6.774;2022-12-20T14:28:55;11.70;;;5.18;;
13611;SDS011;6877;51.436;6.774;2022-12-20T14:36:47;11.32;;;4.90;;
13611;SDS011;6877;51.436;6.774;2022-12-20T14:41:54;8.70;;;4.95;;
13611;SDS011;6877;51.436;6.774;2022-12-20T14:44:31;12.95;;;4.85;;
13611;SDS011;6877;51.436;6.774;2022-12-20T14:46:59;9.40;;;5.68;;
13611;SDS011;6877;51.436;6.774;2022-12-20T14:49:29;21.38;;;6.38;;
13611;SDS011;6877;51.436;6.774;2022-12-20T14:54:41;12.10;;;5.35;;
13611;SDS011;6877;51.436;6.774;2022-12-20T14:57:14;13.90;;;5.90;;
13611;SDS011;6877;51.436;6.774;2022-12-20T15:10:50;10.40;;;5.60;;
13611;SDS011;6877;51.436;6.774;2022-12-20T15:13:20;16.05;;;6.68;;
13611;SDS011;6877;51.436;6.774;2022-12-20T15:15:51;18.80;;;6.90;;
13611;SDS011;6877;51.436;6.774;2022-12-20T15:18:18;11.00;;;5.65;;
13611;SDS011;6877;51.436;6.774;2022-12-20T15:20:58;14.20;;;6.05;;
13611;SDS011;6877;51.436;6.774;2022-12-20T15:23:25;11.32;;;6.60;;
13611;SDS011;6877;51.436;6.774;2022-12-20T15:25:51;10.48;;;6.40;;
13611;SDS011;6877;51.436;6.774;2022-12-20T15:28:21;13.60;;;6.55;;
13611;SDS011;6877;51.436;6.774;2022-12-20T15:30:56;16.35;;;6.85;;
13611;SDS011;6877;51.436;6.774;2022-12-20T15:33:24;15.75;;;7.20;;
13611;SDS011;6877;51.436;6.774;2022-12-20T15:35:52;12.25;;;7.22;;
13611;SDS011;6877;51.436;6.774;2022-12-20T15:38:20;9.07;;;6.05;;
13611;SDS011;6877;51.436;6.774;2022-12-20T15:40:54;11.50;;;6.65;;
13611;SDS011;6877;51.436;6.774;2022-12-20T15:43:25;14.80;;;6.32;;
13611;SDS011;6877;51.436;6.774;2022-12-20T15:45:57;12.73;;;6.18;;
13611;SDS011;6877;51.436;6.774;2022-12-20T15:48:23;14.23;;;6.25;;
13611;SDS011;6877;51.436;6.774;2022-12-20T15:50:53;16.63;;;6.43;;
13611;SDS011;6877;51.436;6.774;2022-12-20T15:53:31;15.82;;;6.68;;
13611;SDS011;6877;51.436;6.774;2022-12-20T15:55:59;11.63;;;6.00;;
13611;SDS011;6877;51.436;6.774;2022-12-20T15:58:31;11.45;;;6.60;;
13611;SDS011;6877;51.436;6.774;2022-12-20T16:01:02;11.48;;;6.90;;
13611;SDS011;6877;51.436;6.774;2022-12-20T16:03:29;14.98;;;6.88;;
13611;SDS011;6877;51.436;6.774;2022-12-20T16:05:57;14.68;;;6.95;;
13611;SDS011;6877;51.436;6.774;2022-12-20T16:08:29;16.55;;;6.63;;
13611;SDS011;6877;51.436;6.774;2022-12-20T16:10:55;11.77;;;6.78;;
13611;SDS011;6877;51.436;6.774;2022-12-20T16:13:29;11.55;;;7.53;;
13611;SDS011;6877;51.436;6.774;2022-12-20T16:15:58;13.55;;;7.65;;
13611;SDS011;6877;51.436;6.774;2022-12-20T16:18:31;14.55;;;8.18;;
13611;SDS011;6877;51.436;6.774;2022-12-20T16:21:04;12.00;;;7.28;;
13611;SDS011;6877;51.436;6.774;2022-12-20T16:23:35;13.13;;;7.13;;
13611;SDS011;6877;51.436;6.774;2022-12-20T16:26:10;13.88;;;7.35;;
13611;SDS011;6877;51.436;6.774;2022-12-20T16:28:38;11.00;;;7.50;;
13611;SDS011;6877;51.436;6.774;2022-12-20T16:31:09;13.07;;;7.60;;
13611;SDS011;6877;51.436;6.774;2022-12-20T16:34:02;16.90;;;8.52;;
13611;SDS011;6877;51.436;6.774;2022-12-20T16:36:35;10.38;;;5.90;;
13611;SDS011;6877;51.436;6.774;2022-12-20T16:39:06;14.40;;;7.15;;
13611;SDS011;6877;51.436;6.774;2022-12-20T16:41:35;17.40;;;6.95;;
13611;SDS011;6877;51.436;6.774;2022-12-20T16:44:13;19.83;;;7.60;;
13611;SDS011;6877;51.436;6.774;2022-12-20T16:46:41;14.13;;;5.90;;
13611;SDS011;6877;51.436;6.774;2022-12-20T16:49:09;12.48;;;7.07;;
13611;SDS011;6877;51.436;6.774;2022-12-20T16:51:41;15.50;;;6.70;;
13611;SDS011;6877;51.436;6.774;2022-12-20T16:54:14;10.73;;;7.32;;
13611;SDS011;6877;51.436;6.774;2022-12-20T16:56:47;12.45;;;7.35;;
13611;SDS011;6877;51.436;6.774;2022-12-20T16:59:21;12.77;;;6.65;;
13611;SDS011;6877;51.436;6.774;2022-12-20T17:01:54;11.00;;;6.20;;
13611;SDS011;6877;51.436;6.774;2022-12-20T17:04:22;12.68;;;7.22;;
13611;SDS011;6877;51.436;6.774;2022-12-20T17:06:54;14.15;;;7.72;;
13611;SDS011;6877;51.436;6.774;2022-12-20T17:09:20;12.27;;;6.50;;
13611;SDS011;6877;51.436;6.774;2022-12-20T17:11:52;13.48;;;6.72;;
13611;SDS011;6877;51.436;6.774;2022-12-20T17:14:23;13.70;;;7.05;;
13611;SDS011;6877;51.436;6.774;2022-12-20T17:16:50;12.82;;;7.10;;
13611;SDS011;6877;51.436;6.774;2022-12-20T17:19:16;10.48;;;6.85;;
13611;SDS011;6877;51.436;6.774;2022-12-20T17:21:43;15.95;;;7.13;;
13611;SDS011;6877;51.436;6.774;2022-12-20T17:24:30;9.13;;;6.00;;
13611;SDS011;6877;51.436;6.774;2022-12-20T17:27:01;11.90;;;7.15;;
13611;SDS011;6877;51.436;6.774;2022-12-20T17:29:28;14.70;;;7.00;;
13611;SDS011;6877;51.436;6.774;2022-12-20T17:31:54;14.75;;;8.05;;